sensor_id;sensor_type;location;lat;lon;timestamp;temperature;humidity
6146;DHT22;3104;50.348;7.620;2023-02-13T00:00:29;8.70;99.90
6146;DHT22;3104;50.348;7.620;2023-02-13T00:02:55;8.70;99.90
6146;DHT22;3104;50.348;7.620;2023-02-13T00:05:20;8.50;99.90
6146;DHT22;3104;50.348;7.620;2023-02-13T00:07:46;8.60;99.90
6146;DHT22;3104;50.348;7.620;2023-02-13T00:10:12;8.60;99.90
6146;DHT22;3104;50.348;7.620;2023-02-13T00:12:37;8.50;99.90
6146;DHT22;3104;50.348;7.620;2023-02-13T00:15:04;8.60;99.90
6146;DHT22;3104;50.348;7.620;2023-02-13T00:17:29;8.70;99.90
6146;DHT22;3104;50.348;7.620;2023-02-13T00:19:55;8.80;99.90
6146;DHT22;3104;50.348;7.620;2023-02-13T00:22:21;8.80;99.90
6146;DHT22;3104;50.348;7.620;2023-02-13T00:24:47;8.70;99.90
6146;DHT22;3104;50.348;7.620;2023-02-13T00:27:12;8.90;99.90
6146;DHT22;3104;50.348;7.620;2023-02-13T00:29:38;8.80;99.90
6146;DHT22;3104;50.348;7.620;2023-02-13T00:32:04;8.50;99.90
6146;DHT22;3104;50.348;7.620;2023-02-13T00:34:29;8.40;99.90
6146;DHT22;3104;50.348;7.620;2023-02-13T00:36:55;8.50;99.90
6146;DHT22;3104;50.348;7.620;2023-02-13T00:39:20;8.60;99.90
6146;DHT22;3104;50.348;7.620;2023-02-13T00:41:46;8.60;99.90
6146;DHT22;3104;50.348;7.620;2023-02-13T00:44:12;8.60;99.90
6146;DHT22;3104;50.348;7.620;2023-02-13T00:46:37;8.60;99.90
6146;DHT22;3104;50.348;7.620;2023-02-13T00:49:03;8.80;99.90
6146;DHT22;3104;50.348;7.620;2023-02-13T00:51:29;8.70;99.90
6146;DHT22;3104;50.348;7.620;2023-02-13T00:53:55;8.60;99.90
6146;DHT22;3104;50.348;7.620;2023-02-13T00:56:21;8.60;99.90
6146;DHT22;3104;50.348;7.620;2023-02-13T00:58:47;8.90;99.90
6146;DHT22;3104;50.348;7.620;2023-02-13T01:01:12;8.90;99.90
6146;DHT22;3104;50.348;7.620;2023-02-13T01:03:38;8.80;99.90
6146;DHT22;3104;50.348;7.620;2023-02-13T01:06:04;8.70;99.90
6146;DHT22;3104;50.348;7.620;2023-02-13T01:08:30;8.80;99.90
6146;DHT22;3104;50.348;7.620;2023-02-13T01:10:56;8.70;99.90
6146;DHT22;3104;50.348;7.620;2023-02-13T01:13:22;8.70;99.90
6146;DHT22;3104;50.348;7.620;2023-02-13T01:15:48;8.50;99.90
6146;DHT22;3104;50.348;7.620;2023-02-13T01:18:16;8.50;99.90
6146;DHT22;3104;50.348;7.620;2023-02-13T01:20:42;8.60;99.90
6146;DHT22;3104;50.348;7.620;2023-02-13T01:23:11;8.80;99.90
6146;DHT22;3104;50.348;7.620;2023-02-13T01:25:40;8.80;99.90
6146;DHT22;3104;50.348;7.620;2023-02-13T01:28:07;8.90;99.90
6146;DHT22;3104;50.348;7.620;2023-02-13T01:30:33;9.00;99.90
6146;DHT22;3104;50.348;7.620;2023-02-13T01:32:59;9.10;99.90
6146;DHT22;3104;50.348;7.620;2023-02-13T01:35:24;8.70;99.90
6146;DHT22;3104;50.348;7.620;2023-02-13T01:37:50;8.70;99.90
6146;DHT22;3104;50.348;7.620;2023-02-13T01:40:16;8.70;99.90
6146;DHT22;3104;50.348;7.620;2023-02-13T01:42:42;8.70;99.90
6146;DHT22;3104;50.348;7.620;2023-02-13T01:45:24;8.80;99.90
6146;DHT22;3104;50.348;7.620;2023-02-13T01:50:39;9.00;99.90
6146;DHT22;3104;50.348;7.620;2023-02-13T01:53:19;9.00;99.90
6146;DHT22;3104;50.348;7.620;2023-02-13T01:56:02;9.10;99.90
6146;DHT22;3104;50.348;7.620;2023-02-13T01:58:33;9.00;99.90
6146;DHT22;3104;50.348;7.620;2023-02-13T02:01:00;9.10;99.90
6146;DHT22;3104;50.348;7.620;2023-02-13T02:03:38;9.00;99.90
6146;DHT22;3104;50.348;7.620;2023-02-13T02:06:06;9.00;99.90
6146;DHT22;3104;50.348;7.620;2023-02-13T02:08:33;8.90;99.90
6146;DHT22;3104;50.348;7.620;2023-02-13T02:11:10;8.70;99.90
6146;DHT22;3104;50.348;7.620;2023-02-13T02:13:39;8.70;99.90
6146;DHT22;3104;50.348;7.620;2023-02-13T02:16:06;8.70;99.90
6146;DHT22;3104;50.348;7.620;2023-02-13T02:18:31;8.70;99.90
6146;DHT22;3104;50.348;7.620;2023-02-13T02:21:14;8.80;99.90
6146;DHT22;3104;50.348;7.620;2023-02-13T02:32:51;8.50;99.90
6146;DHT22;3104;50.348;7.620;2023-02-13T02:38:05;8.70;99.90
6146;DHT22;3104;50.348;7.620;2023-02-13T02:43:13;8.60;99.90
6146;DHT22;3104;50.348;7.620;2023-02-13T02:46:10;8.60;99.90
6146;DHT22;3104;50.348;7.620;2023-02-13T02:48:53;8.60;99.90
6146;DHT22;3104;50.348;7.620;2023-02-13T02:52:05;8.60;99.90
6146;DHT22;3104;50.348;7.620;2023-02-13T02:54:38;8.70;99.90
6146;DHT22;3104;50.348;7.620;2023-02-13T02:57:29;8.40;99.90
6146;DHT22;3104;50.348;7.620;2023-02-13T03:00:17;8.20;99.90
6146;DHT22;3104;50.348;7.620;2023-02-13T03:03:04;8.20;99.90
6146;DHT22;3104;50.348;7.620;2023-02-13T03:05:51;8.20;99.90
6146;DHT22;3104;50.348;7.620;2023-02-13T03:08:51;8.30;99.90
6146;DHT22;3104;50.348;7.620;2023-02-13T03:11:37;8.50;99.90
6146;DHT22;3104;50.348;7.620;2023-02-13T03:14:24;8.30;99.90
6146;DHT22;3104;50.348;7.620;2023-02-13T03:16:51;8.50;99.90
6146;DHT22;3104;50.348;7.620;2023-02-13T03:26:20;8.00;99.90
6146;DHT22;3104;50.348;7.620;2023-02-13T03:34:54;8.00;99.90
6146;DHT22;3104;50.348;7.620;2023-02-13T03:37:43;7.90;99.90
6146;DHT22;3104;50.348;7.620;2023-02-13T03:40:41;7.70;99.90
6146;DHT22;3104;50.348;7.620;2023-02-13T03:43:31;7.60;99.90
6146;DHT22;3104;50.348;7.620;2023-02-13T03:46:01;7.60;99.90
6146;DHT22;3104;50.348;7.620;2023-02-13T03:48:32;7.60;99.90
6146;DHT22;3104;50.348;7.620;2023-02-13T03:54:05;7.60;99.90
6146;DHT22;3104;50.348;7.620;2023-02-13T03:56:33;7.50;99.90
6146;DHT22;3104;50.348;7.620;2023-02-13T03:59:33;7.70;99.90
6146;DHT22;3104;50.348;7.620;2023-02-13T04:02:06;7.50;99.90
6146;DHT22;3104;50.348;7.620;2023-02-13T04:05:07;7.60;99.90
6146;DHT22;3104;50.348;7.620;2023-02-13T04:07:35;7.60;99.90
6146;DHT22;3104;50.348;7.620;2023-02-13T04:10:09;7.50;99.90
6146;DHT22;3104;50.348;7.620;2023-02-13T04:13:07;7.80;99.90
6146;DHT22;3104;50.348;7.620;2023-02-13T04:15:41;8.00;99.90
6146;DHT22;3104;50.348;7.620;2023-02-13T04:18:23;8.10;99.90
6146;DHT22;3104;50.348;7.620;2023-02-13T04:20:51;8.00;99.90
6146;DHT22;3104;50.348;7.620;2023-02-13T04:23:18;8.30;99.90
6146;DHT22;3104;50.348;7.620;2023-02-13T04:25:47;8.20;99.90
6146;DHT22;3104;50.348;7.620;2023-02-13T04:28:14;8.20;99.90
6146;DHT22;3104;50.348;7.620;2023-02-13T04:30:40;8.10;99.90
6146;DHT22;3104;50.348;7.620;2023-02-13T04:33:05;8.20;99.90
6146;DHT22;3104;50.348;7.620;2023-02-13T04:35:31;8.10;99.90
6146;DHT22;3104;50.348;7.620;2023-02-13T04:37:56;8.10;99.90
6146;DHT22;3104;50.348;7.620;2023-02-13T04:40:22;8.00;99.90
6146;DHT22;3104;50.348;7.620;2023-02-13T04:42:48;7.70;99.90
6146;DHT22;3104;50.348;7.620;2023-02-13T04:45:14;7.60;99.90
6146;DHT22;3104;50.348;7.620;2023-02-13T04:47:40;7.90;99.90
6146;DHT22;3104;50.348;7.620;2023-02-13T04:50:07;7.90;99.90
6146;DHT22;3104;50.348;7.620;2023-02-13T04:52:33;7.50;99.90
6146;DHT22;3104;50.348;7.620;2023-02-13T04:54:59;7.30;99.90
6146;DHT22;3104;50.348;7.620;2023-02-13T04:57:25;7.00;99.90
6146;DHT22;3104;50.348;7.620;2023-02-13T04:59:50;6.90;99.90
6146;DHT22;3104;50.348;7.620;2023-02-13T05:02:16;6.80;99.90
6146;DHT22;3104;50.348;7.620;2023-02-13T05:04:41;6.80;99.90
6146;DHT22;3104;50.348;7.620;2023-02-13T05:07:07;7.00;99.90
6146;DHT22;3104;50.348;7.620;2023-02-13T05:09:33;6.80;99.90
6146;DHT22;3104;50.348;7.620;2023-02-13T05:11:58;6.80;99.90
6146;DHT22;3104;50.348;7.620;2023-02-13T05:14:24;6.50;99.90
6146;DHT22;3104;50.348;7.620;2023-02-13T05:16:49;6.30;99.90
6146;DHT22;3104;50.348;7.620;2023-02-13T05:19:16;6.30;99.90
6146;DHT22;3104;50.348;7.620;2023-02-13T05:21:42;6.40;99.90
6146;DHT22;3104;50.348;7.620;2023-02-13T05:24:26;6.10;99.90
6146;DHT22;3104;50.348;7.620;2023-02-13T05:26:51;6.00;99.90
6146;DHT22;3104;50.348;7.620;2023-02-13T05:29:17;6.10;99.90
6146;DHT22;3104;50.348;7.620;2023-02-13T05:31:43;6.20;99.90
6146;DHT22;3104;50.348;7.620;2023-02-13T05:34:09;6.30;99.90
6146;DHT22;3104;50.348;7.620;2023-02-13T05:36:34;6.10;99.90
6146;DHT22;3104;50.348;7.620;2023-02-13T05:39:00;6.00;99.90
6146;DHT22;3104;50.348;7.620;2023-02-13T05:41:25;5.90;99.90
6146;DHT22;3104;50.348;7.620;2023-02-13T05:43:51;6.10;99.90
6146;DHT22;3104;50.348;7.620;2023-02-13T05:46:17;6.00;99.90
6146;DHT22;3104;50.348;7.620;2023-02-13T05:48:42;6.00;99.90
6146;DHT22;3104;50.348;7.620;2023-02-13T05:51:08;5.70;99.90
6146;DHT22;3104;50.348;7.620;2023-02-13T05:53:34;5.70;99.90
6146;DHT22;3104;50.348;7.620;2023-02-13T05:56:00;5.70;99.90
6146;DHT22;3104;50.348;7.620;2023-02-13T05:58:27;5.50;99.90
6146;DHT22;3104;50.348;7.620;2023-02-13T06:00:55;5.50;99.90
6146;DHT22;3104;50.348;7.620;2023-02-13T06:03:20;5.40;99.90
6146;DHT22;3104;50.348;7.620;2023-02-13T06:05:46;5.30;99.90
6146;DHT22;3104;50.348;7.620;2023-02-13T06:08:11;5.10;99.90
6146;DHT22;3104;50.348;7.620;2023-02-13T06:10:37;5.20;99.90
6146;DHT22;3104;50.348;7.620;2023-02-13T06:13:03;5.10;99.90
6146;DHT22;3104;50.348;7.620;2023-02-13T06:15:28;5.10;99.90
6146;DHT22;3104;50.348;7.620;2023-02-13T06:17:54;5.00;99.90
6146;DHT22;3104;50.348;7.620;2023-02-13T06:20:20;5.00;99.90
6146;DHT22;3104;50.348;7.620;2023-02-13T06:22:50;4.90;99.90
6146;DHT22;3104;50.348;7.620;2023-02-13T06:25:16;4.90;99.90
6146;DHT22;3104;50.348;7.620;2023-02-13T06:27:41;5.10;99.90
6146;DHT22;3104;50.348;7.620;2023-02-13T06:30:07;5.10;99.90
6146;DHT22;3104;50.348;7.620;2023-02-13T06:32:33;5.00;99.90
6146;DHT22;3104;50.348;7.620;2023-02-13T06:34:58;4.90;99.90
6146;DHT22;3104;50.348;7.620;2023-02-13T06:37:24;4.90;99.90
6146;DHT22;3104;50.348;7.620;2023-02-13T06:39:50;4.80;99.90
6146;DHT22;3104;50.348;7.620;2023-02-13T06:42:15;4.80;99.90
6146;DHT22;3104;50.348;7.620;2023-02-13T06:44:42;4.80;99.90
6146;DHT22;3104;50.348;7.620;2023-02-13T06:47:08;4.80;99.90
6146;DHT22;3104;50.348;7.620;2023-02-13T06:49:34;4.70;99.90
6146;DHT22;3104;50.348;7.620;2023-02-13T06:52:00;4.70;99.90
6146;DHT22;3104;50.348;7.620;2023-02-13T06:54:25;4.80;99.90
6146;DHT22;3104;50.348;7.620;2023-02-13T06:56:51;4.80;99.90
6146;DHT22;3104;50.348;7.620;2023-02-13T06:59:16;4.70;99.90
6146;DHT22;3104;50.348;7.620;2023-02-13T07:01:42;4.70;99.90
6146;DHT22;3104;50.348;7.620;2023-02-13T07:04:07;4.80;99.90
6146;DHT22;3104;50.348;7.620;2023-02-13T07:06:33;4.70;99.90
6146;DHT22;3104;50.348;7.620;2023-02-13T07:09:01;4.60;99.90
6146;DHT22;3104;50.348;7.620;2023-02-13T07:11:27;4.60;99.90
6146;DHT22;3104;50.348;7.620;2023-02-13T07:13:53;4.60;99.90
6146;DHT22;3104;50.348;7.620;2023-02-13T07:16:18;4.60;99.90
6146;DHT22;3104;50.348;7.620;2023-02-13T07:18:44;4.80;99.90
6146;DHT22;3104;50.348;7.620;2023-02-13T07:21:09;4.80;99.90
6146;DHT22;3104;50.348;7.620;2023-02-13T07:23:35;4.60;99.90
6146;DHT22;3104;50.348;7.620;2023-02-13T07:26:01;4.60;99.90
6146;DHT22;3104;50.348;7.620;2023-02-13T07:28:27;4.70;99.90
6146;DHT22;3104;50.348;7.620;2023-02-13T07:30:54;4.60;99.90
6146;DHT22;3104;50.348;7.620;2023-02-13T07:33:19;4.50;99.90
6146;DHT22;3104;50.348;7.620;2023-02-13T07:35:50;4.60;99.90
6146;DHT22;3104;50.348;7.620;2023-02-13T07:38:17;4.50;99.90
6146;DHT22;3104;50.348;7.620;2023-02-13T07:40:43;4.40;99.90
6146;DHT22;3104;50.348;7.620;2023-02-13T07:43:08;4.30;99.90
6146;DHT22;3104;50.348;7.620;2023-02-13T07:45:34;4.20;99.90
6146;DHT22;3104;50.348;7.620;2023-02-13T07:48:00;4.20;99.90
6146;DHT22;3104;50.348;7.620;2023-02-13T07:50:25;4.20;99.90
6146;DHT22;3104;50.348;7.620;2023-02-13T07:52:59;4.20;99.90
6146;DHT22;3104;50.348;7.620;2023-02-13T07:55:26;4.20;99.90
6146;DHT22;3104;50.348;7.620;2023-02-13T07:57:52;4.20;99.90
6146;DHT22;3104;50.348;7.620;2023-02-13T08:00:18;4.20;99.90
6146;DHT22;3104;50.348;7.620;2023-02-13T08:02:44;4.10;99.90
6146;DHT22;3104;50.348;7.620;2023-02-13T08:05:09;4.20;99.90
6146;DHT22;3104;50.348;7.620;2023-02-13T08:07:35;4.40;99.90
6146;DHT22;3104;50.348;7.620;2023-02-13T08:10:01;4.40;99.90
6146;DHT22;3104;50.348;7.620;2023-02-13T08:12:46;4.30;99.90
6146;DHT22;3104;50.348;7.620;2023-02-13T08:15:13;4.40;99.90
6146;DHT22;3104;50.348;7.620;2023-02-13T08:17:39;4.60;99.90
6146;DHT22;3104;50.348;7.620;2023-02-13T08:20:06;4.70;99.90
6146;DHT22;3104;50.348;7.620;2023-02-13T08:22:38;4.80;99.90
6146;DHT22;3104;50.348;7.620;2023-02-13T08:25:06;4.80;99.90
6146;DHT22;3104;50.348;7.620;2023-02-13T08:27:32;5.00;99.90
6146;DHT22;3104;50.348;7.620;2023-02-13T08:29:58;5.10;99.90
6146;DHT22;3104;50.348;7.620;2023-02-13T08:32:25;5.20;99.90
6146;DHT22;3104;50.348;7.620;2023-02-13T08:34:50;5.30;99.90
6146;DHT22;3104;50.348;7.620;2023-02-13T08:37:17;5.30;99.90
6146;DHT22;3104;50.348;7.620;2023-02-13T08:39:43;5.40;99.90
6146;DHT22;3104;50.348;7.620;2023-02-13T08:42:09;5.30;99.90
6146;DHT22;3104;50.348;7.620;2023-02-13T08:44:34;5.40;99.90
6146;DHT22;3104;50.348;7.620;2023-02-13T08:47:00;5.60;99.90
6146;DHT22;3104;50.348;7.620;2023-02-13T08:49:31;5.60;99.90
6146;DHT22;3104;50.348;7.620;2023-02-13T08:51:57;5.70;99.90
6146;DHT22;3104;50.348;7.620;2023-02-13T08:54:23;6.00;99.90
6146;DHT22;3104;50.348;7.620;2023-02-13T08:56:49;6.00;99.90
6146;DHT22;3104;50.348;7.620;2023-02-13T08:59:14;6.10;99.90
6146;DHT22;3104;50.348;7.620;2023-02-13T09:01:40;6.20;99.90
6146;DHT22;3104;50.348;7.620;2023-02-13T09:04:06;6.50;99.90
6146;DHT22;3104;50.348;7.620;2023-02-13T09:06:31;6.70;99.90
6146;DHT22;3104;50.348;7.620;2023-02-13T09:08:57;6.70;99.90
6146;DHT22;3104;50.348;7.620;2023-02-13T09:11:23;6.70;99.90
6146;DHT22;3104;50.348;7.620;2023-02-13T09:13:51;7.00;99.90
6146;DHT22;3104;50.348;7.620;2023-02-13T09:16:17;7.20;99.90
6146;DHT22;3104;50.348;7.620;2023-02-13T09:18:43;7.30;99.90
6146;DHT22;3104;50.348;7.620;2023-02-13T09:21:11;7.50;99.90
6146;DHT22;3104;50.348;7.620;2023-02-13T09:23:39;7.50;99.90
6146;DHT22;3104;50.348;7.620;2023-02-13T09:26:10;7.70;99.90
6146;DHT22;3104;50.348;7.620;2023-02-13T09:28:37;8.70;99.90
6146;DHT22;3104;50.348;7.620;2023-02-13T09:31:14;10.10;99.90
6146;DHT22;3104;50.348;7.620;2023-02-13T09:33:41;10.20;99.90
6146;DHT22;3104;50.348;7.620;2023-02-13T09:36:12;10.80;99.90
6146;DHT22;3104;50.348;7.620;2023-02-13T09:38:39;12.20;99.90
6146;DHT22;3104;50.348;7.620;2023-02-13T09:41:15;12.50;99.90
6146;DHT22;3104;50.348;7.620;2023-02-13T09:43:49;13.00;99.90
6146;DHT22;3104;50.348;7.620;2023-02-13T09:46:20;12.90;98.50
6146;DHT22;3104;50.348;7.620;2023-02-13T09:48:50;14.00;94.00
6146;DHT22;3104;50.348;7.620;2023-02-13T09:51:19;14.20;91.30
6146;DHT22;3104;50.348;7.620;2023-02-13T09:53:52;14.30;88.50
6146;DHT22;3104;50.348;7.620;2023-02-13T09:56:39;13.90;93.20
6146;DHT22;3104;50.348;7.620;2023-02-13T09:59:51;13.80;90.50
6146;DHT22;3104;50.348;7.620;2023-02-13T10:02:29;12.70;96.70
6146;DHT22;3104;50.348;7.620;2023-02-13T10:07:49;13.40;98.40
6146;DHT22;3104;50.348;7.620;2023-02-13T10:16:17;14.20;83.20
6146;DHT22;3104;50.348;7.620;2023-02-13T10:18:48;13.40;92.20
6146;DHT22;3104;50.348;7.620;2023-02-13T10:21:36;13.90;91.80
6146;DHT22;3104;50.348;7.620;2023-02-13T10:24:16;13.50;94.70
6146;DHT22;3104;50.348;7.620;2023-02-13T10:26:46;13.30;93.70
6146;DHT22;3104;50.348;7.620;2023-02-13T10:29:24;11.70;99.90
6146;DHT22;3104;50.348;7.620;2023-02-13T10:32:14;12.30;99.90
6146;DHT22;3104;50.348;7.620;2023-02-13T10:34:45;13.10;96.30
6146;DHT22;3104;50.348;7.620;2023-02-13T10:37:17;13.10;98.40
6146;DHT22;3104;50.348;7.620;2023-02-13T10:39:45;13.30;97.10
6146;DHT22;3104;50.348;7.620;2023-02-13T10:42:52;13.20;98.70
6146;DHT22;3104;50.348;7.620;2023-02-13T10:45:18;11.90;99.90
6146;DHT22;3104;50.348;7.620;2023-02-13T10:50:35;11.90;99.90
6146;DHT22;3104;50.348;7.620;2023-02-13T10:53:34;11.70;99.90
6146;DHT22;3104;50.348;7.620;2023-02-13T10:56:19;12.10;99.90
6146;DHT22;3104;50.348;7.620;2023-02-13T11:01:44;11.90;99.90
6146;DHT22;3104;50.348;7.620;2023-02-13T11:04:17;12.10;99.90
6146;DHT22;3104;50.348;7.620;2023-02-13T11:06:59;12.70;99.90
6146;DHT22;3104;50.348;7.620;2023-02-13T11:09:26;12.60;99.90
6146;DHT22;3104;50.348;7.620;2023-02-13T11:11:52;12.60;99.90
6146;DHT22;3104;50.348;7.620;2023-02-13T11:14:23;12.50;99.90
6146;DHT22;3104;50.348;7.620;2023-02-13T11:17:05;12.70;99.90
6146;DHT22;3104;50.348;7.620;2023-02-13T11:19:34;12.30;99.90
6146;DHT22;3104;50.348;7.620;2023-02-13T11:24:30;12.20;99.90
6146;DHT22;3104;50.348;7.620;2023-02-13T11:27:00;12.40;99.90
6146;DHT22;3104;50.348;7.620;2023-02-13T11:29:31;12.80;99.90
6146;DHT22;3104;50.348;7.620;2023-02-13T11:34:41;13.20;99.90
6146;DHT22;3104;50.348;7.620;2023-02-13T11:37:15;13.60;97.70
6146;DHT22;3104;50.348;7.620;2023-02-13T11:39:43;13.20;97.60
6146;DHT22;3104;50.348;7.620;2023-02-13T11:42:35;13.10;99.40
6146;DHT22;3104;50.348;7.620;2023-02-13T11:45:05;12.70;99.90
6146;DHT22;3104;50.348;7.620;2023-02-13T11:49:59;13.30;99.90
6146;DHT22;3104;50.348;7.620;2023-02-13T11:52:31;14.20;96.00
6146;DHT22;3104;50.348;7.620;2023-02-13T11:54:59;14.80;89.60
6146;DHT22;3104;50.348;7.620;2023-02-13T11:57:32;15.10;84.20
6146;DHT22;3104;50.348;7.620;2023-02-13T12:00:00;14.60;90.10
6146;DHT22;3104;50.348;7.620;2023-02-13T12:02:42;14.90;88.00
6146;DHT22;3104;50.348;7.620;2023-02-13T12:05:20;14.90;81.50
6146;DHT22;3104;50.348;7.620;2023-02-13T12:07:47;14.20;89.80
6146;DHT22;3104;50.348;7.620;2023-02-13T12:10:27;14.20;90.10
6146;DHT22;3104;50.348;7.620;2023-02-13T12:13:13;13.70;95.60
6146;DHT22;3104;50.348;7.620;2023-02-13T12:15:40;14.30;92.50
6146;DHT22;3104;50.348;7.620;2023-02-13T12:26:31;15.10;88.00
6146;DHT22;3104;50.348;7.620;2023-02-13T12:29:26;14.80;86.20
6146;DHT22;3104;50.348;7.620;2023-02-13T12:34:43;15.30;78.20
6146;DHT22;3104;50.348;7.620;2023-02-13T12:43:42;14.10;91.50
6146;DHT22;3104;50.348;7.620;2023-02-13T12:48:59;14.50;94.40
6146;DHT22;3104;50.348;7.620;2023-02-13T12:51:44;14.40;88.50
6146;DHT22;3104;50.348;7.620;2023-02-13T12:56:53;14.00;96.90
6146;DHT22;3104;50.348;7.620;2023-02-13T13:10:48;14.30;94.70
6146;DHT22;3104;50.348;7.620;2023-02-13T13:13:47;15.10;87.70
6146;DHT22;3104;50.348;7.620;2023-02-13T13:19:22;14.70;89.70
6146;DHT22;3104;50.348;7.620;2023-02-13T13:21:59;14.50;90.60
6146;DHT22;3104;50.348;7.620;2023-02-13T13:25:19;14.70;89.70
6146;DHT22;3104;50.348;7.620;2023-02-13T13:27:33;15.30;89.00
6146;DHT22;3104;50.348;7.620;2023-02-13T13:30:05;15.50;79.90
6146;DHT22;3104;50.348;7.620;2023-02-13T13:32:31;14.80;88.00
6146;DHT22;3104;50.348;7.620;2023-02-13T13:34:58;15.00;90.80
6146;DHT22;3104;50.348;7.620;2023-02-13T13:37:46;15.40;83.10
6146;DHT22;3104;50.348;7.620;2023-02-13T13:40:24;15.20;84.20
6146;DHT22;3104;50.348;7.620;2023-02-13T13:43:00;15.50;82.90
6146;DHT22;3104;50.348;7.620;2023-02-13T13:46:10;15.20;80.60
6146;DHT22;3104;50.348;7.620;2023-02-13T13:48:28;15.10;88.80
6146;DHT22;3104;50.348;7.620;2023-02-13T13:50:58;15.10;84.50
6146;DHT22;3104;50.348;7.620;2023-02-13T13:53:23;14.40;92.70
6146;DHT22;3104;50.348;7.620;2023-02-13T14:03:39;14.40;93.00
6146;DHT22;3104;50.348;7.620;2023-02-13T14:06:08;14.20;97.00
6146;DHT22;3104;50.348;7.620;2023-02-13T14:11:28;13.90;97.50
6146;DHT22;3104;50.348;7.620;2023-02-13T14:13:54;14.10;94.50
6146;DHT22;3104;50.348;7.620;2023-02-13T14:16:42;13.70;98.30
6146;DHT22;3104;50.348;7.620;2023-02-13T14:19:37;13.50;99.90
6146;DHT22;3104;50.348;7.620;2023-02-13T14:25:03;13.80;97.60
6146;DHT22;3104;50.348;7.620;2023-02-13T14:27:35;13.80;97.20
6146;DHT22;3104;50.348;7.620;2023-02-13T14:30:03;13.90;96.50
6146;DHT22;3104;50.348;7.620;2023-02-13T14:32:35;13.60;99.80
6146;DHT22;3104;50.348;7.620;2023-02-13T14:35:17;13.80;99.70
6146;DHT22;3104;50.348;7.620;2023-02-13T14:37:54;13.80;97.50
6146;DHT22;3104;50.348;7.620;2023-02-13T14:42:52;14.20;96.80
6146;DHT22;3104;50.348;7.620;2023-02-13T14:45:30;14.10;96.20
6146;DHT22;3104;50.348;7.620;2023-02-13T14:48:01;14.20;95.90
6146;DHT22;3104;50.348;7.620;2023-02-13T14:50:44;13.70;99.40
6146;DHT22;3104;50.348;7.620;2023-02-13T14:53:26;13.80;98.90
6146;DHT22;3104;50.348;7.620;2023-02-13T14:56:01;13.70;99.00
6146;DHT22;3104;50.348;7.620;2023-02-13T14:58:30;13.70;98.30
6146;DHT22;3104;50.348;7.620;2023-02-13T15:01:07;13.70;99.00
6146;DHT22;3104;50.348;7.620;2023-02-13T15:03:47;14.00;97.20
6146;DHT22;3104;50.348;7.620;2023-02-13T15:06:26;14.10;94.60
6146;DHT22;3104;50.348;7.620;2023-02-13T15:08:53;13.70;97.70
6146;DHT22;3104;50.348;7.620;2023-02-13T15:11:34;13.70;99.60
6146;DHT22;3104;50.348;7.620;2023-02-13T15:14:35;13.50;99.90
6146;DHT22;3104;50.348;7.620;2023-02-13T15:17:07;13.50;98.90
6146;DHT22;3104;50.348;7.620;2023-02-13T15:19:43;13.70;99.70
6146;DHT22;3104;50.348;7.620;2023-02-13T15:22:29;13.90;98.30
6146;DHT22;3104;50.348;7.620;2023-02-13T15:24:56;14.20;95.80
6146;DHT22;3104;50.348;7.620;2023-02-13T15:27:30;14.10;92.50
6146;DHT22;3104;50.348;7.620;2023-02-13T15:30:24;14.10;94.10
6146;DHT22;3104;50.348;7.620;2023-02-13T15:33:15;14.20;94.10
6146;DHT22;3104;50.348;7.620;2023-02-13T15:35:41;14.30;93.20
6146;DHT22;3104;50.348;7.620;2023-02-13T15:38:34;14.10;93.30
6146;DHT22;3104;50.348;7.620;2023-02-13T15:41:13;14.20;93.00
6146;DHT22;3104;50.348;7.620;2023-02-13T15:43:45;13.90;93.70
6146;DHT22;3104;50.348;7.620;2023-02-13T15:46:24;14.10;95.10
6146;DHT22;3104;50.348;7.620;2023-02-13T15:48:56;14.20;92.60
6146;DHT22;3104;50.348;7.620;2023-02-13T15:51:25;14.30;91.60
6146;DHT22;3104;50.348;7.620;2023-02-13T15:54:46;14.30;90.80
6146;DHT22;3104;50.348;7.620;2023-02-13T15:56:45;14.00;94.80
6146;DHT22;3104;50.348;7.620;2023-02-13T15:59:11;14.10;94.40
6146;DHT22;3104;50.348;7.620;2023-02-13T16:01:40;14.30;85.80
6146;DHT22;3104;50.348;7.620;2023-02-13T16:04:09;14.40;79.50
6146;DHT22;3104;50.348;7.620;2023-02-13T16:06:37;14.60;74.90
6146;DHT22;3104;50.348;7.620;2023-02-13T16:09:03;14.50;71.90
6146;DHT22;3104;50.348;7.620;2023-02-13T16:11:35;14.40;73.00
6146;DHT22;3104;50.348;7.620;2023-02-13T16:14:14;14.10;75.20
6146;DHT22;3104;50.348;7.620;2023-02-13T16:16:52;14.00;73.40
6146;DHT22;3104;50.348;7.620;2023-02-13T16:22:05;14.00;73.70
6146;DHT22;3104;50.348;7.620;2023-02-13T16:24:32;14.00;74.40
6146;DHT22;3104;50.348;7.620;2023-02-13T16:26:57;14.00;74.60
6146;DHT22;3104;50.348;7.620;2023-02-13T16:29:24;13.80;76.40
6146;DHT22;3104;50.348;7.620;2023-02-13T16:31:52;13.70;76.50
6146;DHT22;3104;50.348;7.620;2023-02-13T16:34:24;13.60;78.70
6146;DHT22;3104;50.348;7.620;2023-02-13T16:36:51;13.30;83.90
6146;DHT22;3104;50.348;7.620;2023-02-13T16:39:31;13.30;85.60
6146;DHT22;3104;50.348;7.620;2023-02-13T16:41:58;13.10;88.60
6146;DHT22;3104;50.348;7.620;2023-02-13T16:44:31;12.90;90.30
6146;DHT22;3104;50.348;7.620;2023-02-13T16:47:02;12.80;91.10
6146;DHT22;3104;50.348;7.620;2023-02-13T16:49:32;12.80;92.50
6146;DHT22;3104;50.348;7.620;2023-02-13T16:54:57;12.60;92.00
6146;DHT22;3104;50.348;7.620;2023-02-13T16:57:33;12.50;92.90
6146;DHT22;3104;50.348;7.620;2023-02-13T17:02:33;12.40;94.40
6146;DHT22;3104;50.348;7.620;2023-02-13T17:08:00;12.20;96.60
6146;DHT22;3104;50.348;7.620;2023-02-13T17:13:15;12.00;97.90
6146;DHT22;3104;50.348;7.620;2023-02-13T17:15:45;12.20;95.60
6146;DHT22;3104;50.348;7.620;2023-02-13T17:18:11;12.10;97.10
6146;DHT22;3104;50.348;7.620;2023-02-13T17:20:40;12.20;95.90
6146;DHT22;3104;50.348;7.620;2023-02-13T17:23:10;12.10;95.70
6146;DHT22;3104;50.348;7.620;2023-02-13T17:25:38;12.00;96.80
6146;DHT22;3104;50.348;7.620;2023-02-13T17:28:12;12.00;96.90
6146;DHT22;3104;50.348;7.620;2023-02-13T17:30:39;11.70;99.10
6146;DHT22;3104;50.348;7.620;2023-02-13T17:33:09;11.60;99.90
6146;DHT22;3104;50.348;7.620;2023-02-13T17:35:35;11.70;98.80
6146;DHT22;3104;50.348;7.620;2023-02-13T17:38:01;11.60;99.50
6146;DHT22;3104;50.348;7.620;2023-02-13T17:40:27;11.50;99.90
6146;DHT22;3104;50.348;7.620;2023-02-13T17:42:56;11.30;99.90
6146;DHT22;3104;50.348;7.620;2023-02-13T17:45:26;11.40;99.90
6146;DHT22;3104;50.348;7.620;2023-02-13T17:47:52;11.50;99.90
6146;DHT22;3104;50.348;7.620;2023-02-13T17:50:18;11.50;99.90
6146;DHT22;3104;50.348;7.620;2023-02-13T17:52:45;11.50;99.80
6146;DHT22;3104;50.348;7.620;2023-02-13T17:55:27;11.50;99.40
6146;DHT22;3104;50.348;7.620;2023-02-13T17:57:54;11.30;99.90
6146;DHT22;3104;50.348;7.620;2023-02-13T18:00:24;11.30;99.90
6146;DHT22;3104;50.348;7.620;2023-02-13T18:02:51;11.30;99.90
6146;DHT22;3104;50.348;7.620;2023-02-13T18:05:17;11.30;99.90
6146;DHT22;3104;50.348;7.620;2023-02-13T18:07:44;11.20;99.90
6146;DHT22;3104;50.348;7.620;2023-02-13T18:10:16;11.00;99.90
6146;DHT22;3104;50.348;7.620;2023-02-13T18:12:42;10.30;99.90
6146;DHT22;3104;50.348;7.620;2023-02-13T18:15:09;10.20;99.90
6146;DHT22;3104;50.348;7.620;2023-02-13T18:17:36;10.30;99.90
6146;DHT22;3104;50.348;7.620;2023-02-13T18:20:02;10.50;99.90
6146;DHT22;3104;50.348;7.620;2023-02-13T18:22:29;10.60;99.90
6146;DHT22;3104;50.348;7.620;2023-02-13T18:24:54;10.60;99.90
6146;DHT22;3104;50.348;7.620;2023-02-13T18:27:20;10.80;99.90
6146;DHT22;3104;50.348;7.620;2023-02-13T18:29:47;10.80;99.90
6146;DHT22;3104;50.348;7.620;2023-02-13T18:32:13;10.80;99.90
6146;DHT22;3104;50.348;7.620;2023-02-13T18:34:38;10.70;99.90
6146;DHT22;3104;50.348;7.620;2023-02-13T18:37:05;10.70;99.90